Current Weather

Aghajari

Aghajari, Iran (OIAG)

Report from: Thursday, July 18, 2024 1:00 PM UTC
Current time: Thursday, July 18, 2024 2:01 PM UTC

Nearby weather – Weather history – Daily summaries
Weather forecast

Temperature50.0°C (122.0°F)
Heat index47.2°C (117.0°F)
Dew point9.0°C (48.2°F)
Winds 14 kts (7.2 m/s, 16.1 mph) West-Northwest (290°)
Clouds Sky clear
Altimeter29.29 in.Hg (992 mB)
Relative humidity9 %
Density altitude4,729 ft. (1,441 m)
Remarks Ceiling and visibility OK
Flight conditions Visual Meteorological Conditions
Raw dataOIAG 181300Z 29014KT CAVOK 50/09 Q0992
An error has occurred. This application may no longer respond until reloaded. Reload 🗙